createdAt,value
2022-08-25T00:02:07.530Z,21.60
2022-08-25T00:06:17.415Z,21.50
2022-08-25T00:10:20.622Z,21.50
2022-08-25T00:14:29.813Z,21.60
2022-08-25T00:18:33.320Z,21.70
2022-08-25T00:22:37.708Z,21.70
2022-08-25T00:26:44.763Z,21.70
2022-08-25T00:30:49.812Z,21.70
2022-08-25T00:34:53.770Z,21.70
2022-08-25T00:38:56.799Z,21.50
2022-08-25T00:43:00.889Z,21.50
2022-08-25T00:47:06.311Z,21.50
2022-08-25T00:51:14.503Z,21.50
2022-08-25T00:55:26.870Z,21.60
2022-08-25T00:59:30.844Z,21.80
2022-08-25T01:03:35.917Z,21.80
2022-08-25T01:07:40.380Z,21.60
2022-08-25T01:11:48.348Z,21.50
2022-08-25T01:15:55.371Z,21.30
2022-08-25T01:19:58.511Z,21.20
2022-08-25T01:24:03.593Z,21.10
2022-08-25T01:28:06.692Z,21.00
2022-08-25T01:32:13.311Z,20.90
2022-08-25T01:36:20.103Z,20.80
2022-08-25T01:40:24.293Z,20.80
2022-08-25T01:44:27.202Z,20.80
2022-08-25T01:48:30.025Z,20.80
2022-08-25T01:52:45.808Z,20.80
2022-08-25T01:56:53.213Z,20.70
2022-08-25T02:01:02.043Z,20.70
2022-08-25T02:05:06.993Z,20.80
2022-08-25T02:09:15.391Z,21.00
2022-08-25T02:13:24.815Z,21.10
2022-08-25T02:17:36.657Z,21.20
2022-08-25T02:21:40.785Z,21.40
2022-08-25T02:25:46.137Z,21.50
2022-08-25T02:29:53.586Z,21.50
2022-08-25T02:33:57.525Z,21.60
2022-08-25T02:38:02.447Z,21.70
2022-08-25T02:42:06.183Z,21.70
2022-08-25T02:46:12.362Z,21.80
2022-08-25T02:50:15.240Z,21.90
2022-08-25T02:54:18.095Z,22.00
2022-08-25T02:58:21.233Z,22.10
2022-08-25T03:02:24.871Z,22.20
2022-08-25T03:06:30.630Z,22.30
2022-08-25T03:10:34.355Z,22.40
2022-08-25T03:14:38.028Z,22.50
2022-08-25T03:22:59.434Z,22.50
2022-08-25T03:27:02.713Z,22.60
2022-08-25T03:31:05.881Z,22.70
2022-08-25T03:35:14.047Z,22.70
2022-08-25T03:39:20.875Z,22.70
2022-08-25T03:43:24.957Z,22.70
2022-08-25T03:47:30.008Z,22.70
2022-08-25T03:51:37.538Z,22.70
2022-08-25T03:55:41.436Z,22.70
2022-08-25T03:59:44.619Z,22.70
2022-08-25T04:03:48.643Z,22.70
2022-08-25T04:07:51.515Z,22.70
2022-08-25T04:11:54.382Z,22.70
2022-08-25T04:17:06.126Z,22.70
2022-08-25T04:21:11.252Z,22.70
2022-08-25T04:25:15.369Z,22.70
2022-08-25T04:29:23.544Z,22.70
2022-08-25T04:33:32.276Z,22.80
2022-08-25T04:37:35.693Z,22.80
2022-08-25T04:41:39.155Z,22.80
2022-08-25T04:45:42.263Z,22.90
2022-08-25T04:55:24.607Z,22.90
2022-08-25T04:59:30.376Z,22.90
2022-08-25T05:03:34.025Z,22.90
2022-08-25T05:07:37.619Z,22.90
2022-08-25T05:11:40.713Z,22.90
2022-08-25T05:15:52.852Z,23.00
2022-08-25T05:19:56.188Z,23.00
2022-08-25T05:29:31.049Z,23.10
2022-08-25T05:38:06.356Z,23.20
2022-08-25T05:42:13.250Z,23.20
2022-08-25T05:50:37.009Z,23.30
2022-08-25T05:54:45.621Z,23.40
2022-08-25T06:00:03.284Z,23.50
2022-08-25T06:04:17.839Z,23.80
2022-08-25T06:08:20.770Z,24.00
2022-08-25T06:12:24.170Z,24.20
2022-08-25T06:16:27.231Z,24.50
2022-08-25T06:20:31.860Z,24.60
2022-08-25T06:24:35.554Z,24.90
2022-08-25T06:28:38.648Z,25.10
2022-08-25T06:32:43.068Z,25.30
2022-08-25T06:41:13.040Z,25.60
2022-08-25T06:45:20.722Z,25.70
2022-08-25T06:49:29.296Z,25.80
2022-08-25T06:53:35.939Z,26.00
2022-08-25T06:57:43.626Z,26.10
2022-08-25T07:01:46.929Z,26.30
2022-08-25T07:05:56.695Z,26.40
2022-08-25T07:10:51.426Z,26.60
2022-08-25T07:15:10.231Z,26.80
2022-08-25T07:27:58.875Z,27.00
2022-08-25T07:36:21.969Z,27.20
2022-08-25T07:40:28.935Z,27.40
2022-08-25T07:45:12.586Z,27.50
2022-08-25T07:49:16.701Z,27.60
2022-08-25T07:53:20.287Z,27.60
2022-08-25T07:57:27.485Z,27.90
2022-08-25T08:01:30.473Z,28.00
2022-08-25T08:05:35.433Z,28.10
2022-08-25T08:09:38.497Z,28.30
2022-08-25T08:13:42.321Z,28.50
2022-08-25T08:23:13.627Z,28.30
2022-08-25T08:27:16.853Z,28.50
2022-08-25T08:31:28.354Z,28.50
2022-08-25T08:35:31.806Z,28.80
2022-08-25T08:39:35.012Z,28.90
2022-08-25T08:43:43.172Z,29.00
2022-08-25T08:48:10.282Z,29.00
2022-08-25T08:57:46.767Z,29.10
2022-08-25T09:01:54.322Z,29.20
2022-08-25T09:06:06.900Z,29.50
2022-08-25T09:10:15.175Z,29.80
2022-08-25T09:14:32.544Z,29.90
2022-08-25T09:19:00.984Z,30.10
2022-08-25T09:23:20.603Z,30.40
2022-08-25T09:27:42.233Z,30.50
2022-08-25T09:32:24.104Z,30.70
2022-08-25T09:36:37.719Z,30.90
2022-08-25T09:40:50.308Z,31.00
2022-08-25T09:44:57.743Z,31.00
2022-08-25T09:49:17.748Z,31.10
2022-08-25T09:53:21.981Z,31.10
2022-08-25T09:57:39.237Z,31.30
2022-08-25T10:06:56.433Z,31.50
2022-08-25T10:11:09.910Z,31.70
2022-08-25T10:15:32.754Z,31.60
2022-08-25T10:19:37.266Z,31.80
2022-08-25T10:24:02.916Z,31.80
2022-08-25T10:29:02.213Z,31.90
2022-08-25T10:33:25.159Z,31.70
2022-08-25T10:37:51.121Z,31.50
2022-08-25T10:46:36.540Z,31.70
2022-08-25T11:00:31.600Z,32.00
2022-08-25T11:04:56.179Z,32.00
2022-08-25T11:14:58.458Z,31.90
2022-08-25T11:19:28.246Z,31.90
2022-08-25T11:23:59.170Z,31.80
2022-08-25T11:28:48.509Z,31.90
2022-08-25T11:32:57.687Z,32.00
2022-08-25T11:41:51.197Z,32.30
2022-08-25T11:46:06.823Z,32.30
2022-08-25T11:54:58.593Z,32.50
2022-08-25T11:59:02.682Z,32.50
2022-08-25T12:03:42.481Z,32.40
2022-08-25T12:07:54.816Z,32.00
2022-08-25T12:11:59.356Z,32.10
2022-08-25T12:16:09.614Z,32.40
2022-08-25T12:20:12.763Z,32.50
2022-08-25T12:24:47.557Z,32.50
2022-08-25T12:29:07.572Z,32.50
2022-08-25T12:33:38.743Z,32.70
2022-08-25T12:47:25.031Z,33.00
2022-08-25T12:51:34.123Z,33.10
2022-08-25T12:55:44.732Z,33.20
2022-08-25T12:59:57.483Z,33.40
2022-08-25T13:04:12.242Z,33.50
2022-08-25T13:08:46.601Z,33.50
2022-08-25T13:17:34.947Z,33.20
2022-08-25T13:21:49.600Z,33.20
2022-08-25T13:25:58.589Z,33.00
2022-08-25T13:30:10.539Z,33.20
2022-08-25T13:43:10.578Z,33.50
2022-08-25T13:47:31.517Z,33.90
2022-08-25T13:56:04.725Z,34.00
2022-08-25T14:00:11.952Z,33.80
2022-08-25T14:08:57.909Z,33.90
2022-08-25T14:13:10.798Z,33.60
2022-08-25T14:25:56.281Z,33.70
2022-08-25T14:29:59.371Z,33.80
2022-08-25T14:34:20.181Z,33.60
2022-08-25T14:42:40.950Z,33.70
2022-08-25T14:46:57.139Z,33.90
2022-08-25T14:51:04.163Z,33.80
2022-08-25T14:55:09.276Z,33.60
2022-08-25T15:03:38.919Z,33.70
2022-08-25T15:12:37.387Z,33.40
2022-08-25T15:16:57.439Z,33.40
2022-08-25T15:21:04.172Z,33.30
2022-08-25T15:25:08.977Z,33.50
2022-08-25T15:29:13.876Z,33.60
2022-08-25T15:33:19.206Z,33.70
2022-08-25T15:37:27.839Z,33.80
2022-08-25T15:41:38.473Z,33.70
2022-08-25T15:45:41.616Z,33.80
2022-08-25T15:49:45.031Z,34.00
2022-08-25T15:53:48.051Z,34.10
2022-08-25T15:57:56.880Z,34.00
2022-08-25T16:06:21.528Z,34.10
2022-08-25T16:10:25.358Z,34.00
2022-08-25T16:14:37.521Z,33.90
2022-08-25T16:18:41.303Z,34.00
2022-08-25T16:22:44.947Z,34.40
2022-08-25T16:26:51.695Z,34.70
2022-08-25T16:35:16.456Z,34.50
2022-08-25T16:39:21.071Z,34.40
2022-08-25T16:47:43.884Z,34.70
2022-08-25T16:51:57.332Z,35.60
2022-08-25T16:56:03.969Z,36.10
2022-08-25T17:00:14.121Z,36.10
2022-08-25T17:04:18.682Z,35.50
2022-08-25T17:08:30.965Z,34.80
2022-08-25T17:12:34.412Z,34.20
2022-08-25T17:16:38.060Z,33.70
2022-08-25T17:20:44.699Z,33.30
2022-08-25T17:24:53.357Z,33.00
2022-08-25T17:33:26.582Z,33.90
2022-08-25T17:37:33.100Z,34.20
2022-08-25T17:41:38.619Z,34.40
2022-08-25T17:45:44.021Z,34.20
2022-08-25T17:49:47.498Z,33.50
2022-08-25T17:53:54.252Z,32.80
2022-08-25T17:57:59.889Z,32.20
2022-08-25T18:02:03.357Z,31.80
2022-08-25T18:06:16.072Z,31.40
2022-08-25T18:10:20.066Z,31.00
2022-08-25T18:14:25.594Z,30.60
2022-08-25T18:18:29.194Z,30.40
2022-08-25T18:22:32.833Z,30.00
2022-08-25T18:26:36.627Z,29.80
2022-08-25T18:30:40.836Z,29.60
2022-08-25T18:34:44.043Z,29.40
2022-08-25T18:39:09.347Z,29.30
2022-08-25T18:43:14.483Z,29.10
2022-08-25T18:47:17.363Z,28.90
2022-08-25T18:51:28.380Z,28.80
2022-08-25T18:55:37.720Z,28.70
2022-08-25T18:59:42.862Z,28.60
2022-08-25T19:03:50.369Z,28.50
2022-08-25T19:07:59.309Z,28.50
2022-08-25T19:12:11.844Z,28.40
2022-08-25T19:16:43.671Z,28.30
2022-08-25T19:20:46.736Z,28.20
2022-08-25T19:24:49.631Z,28.10
2022-08-25T19:28:59.080Z,28.00
2022-08-25T19:33:03.869Z,28.00
2022-08-25T19:45:56.423Z,27.90
2022-08-25T19:54:50.746Z,27.80
2022-08-25T20:56:59.358Z,26.90
2022-08-25T21:01:03.487Z,26.90
2022-08-25T21:05:09.808Z,26.90
2022-08-25T21:22:16.419Z,26.70
2022-08-25T21:26:34.630Z,26.60
2022-08-25T21:30:49.475Z,26.60
2022-08-25T21:34:58.414Z,26.60
2022-08-25T21:52:05.415Z,26.40
2022-08-25T21:56:16.769Z,26.20
2022-08-25T22:04:39.561Z,26.00
2022-08-25T22:08:43.850Z,25.90
2022-08-25T22:12:48.429Z,25.70
2022-08-25T22:16:52.284Z,25.70
2022-08-25T22:20:55.858Z,25.80
2022-08-25T22:24:59.620Z,25.80
2022-08-25T22:29:05.720Z,25.80
2022-08-25T22:37:30.453Z,25.90
2022-08-25T22:41:34.572Z,25.90
2022-08-25T22:45:44.642Z,25.80
2022-08-25T22:49:48.623Z,25.80
2022-08-25T22:53:53.143Z,25.60
2022-08-25T22:57:56.809Z,25.40
2022-08-25T23:02:00.629Z,25.20
2022-08-25T23:06:03.749Z,25.10
2022-08-25T23:10:12.237Z,25.00
2022-08-25T23:14:16.582Z,24.90
2022-08-25T23:18:19.530Z,24.60
2022-08-25T23:22:22.791Z,24.50
2022-08-25T23:26:31.134Z,24.30
2022-08-25T23:30:36.127Z,24.20
2022-08-25T23:34:46.987Z,24.10
2022-08-25T23:38:54.609Z,24.00
2022-08-25T23:42:57.381Z,23.90
2022-08-25T23:47:00.234Z,23.80
2022-08-25T23:51:04.234Z,23.70
2022-08-25T23:55:07.743Z,23.60
2022-08-25T23:59:10.779Z,23.70
